createdAt,value
2022-08-28T00:01:20.137Z,91.70
2022-08-28T00:03:53.337Z,91.10
2022-08-28T00:06:25.447Z,90.10
2022-08-28T00:08:57.338Z,89.10
2022-08-28T00:11:29.150Z,89.00
2022-08-28T00:14:00.945Z,89.70
2022-08-28T00:16:33.554Z,90.20
2022-08-28T00:19:06.798Z,90.70
2022-08-28T00:21:38.653Z,91.20
2022-08-28T00:24:11.013Z,91.70
2022-08-28T00:27:01.569Z,92.40
2022-08-28T00:29:33.349Z,93.40
2022-08-28T00:32:05.942Z,94.40
2022-08-28T00:34:39.182Z,95.60
2022-08-28T00:37:11.007Z,96.00
2022-08-28T00:39:42.826Z,96.60
2022-08-28T00:42:15.836Z,97.00
2022-08-28T00:44:48.851Z,97.40
2022-08-28T00:47:20.657Z,97.90
2022-08-28T00:49:55.431Z,98.20
2022-08-28T00:52:28.434Z,98.80
2022-08-28T00:55:04.271Z,99.10
2022-08-28T00:57:38.770Z,99.30
2022-08-28T01:00:16.549Z,99.40
2022-08-28T01:02:48.487Z,99.60
2022-08-28T01:05:22.505Z,99.70
2022-08-28T01:07:57.490Z,99.90
2022-08-28T01:10:32.377Z,99.90
2022-08-28T01:13:04.855Z,99.90
2022-08-28T01:15:38.382Z,99.90
2022-08-28T01:18:15.546Z,99.90
2022-08-28T01:20:55.681Z,99.90
2022-08-28T01:23:51.809Z,99.90
2022-08-28T01:26:24.289Z,99.90
2022-08-28T01:28:58.432Z,99.90
2022-08-28T01:31:32.043Z,99.90
2022-08-28T01:34:04.625Z,99.90
2022-08-28T01:36:37.035Z,99.90
2022-08-28T01:39:14.852Z,99.90
2022-08-28T01:41:51.873Z,99.90
2022-08-28T01:44:26.528Z,99.90
2022-08-28T01:46:59.377Z,99.90
2022-08-28T01:49:31.372Z,99.90
2022-08-28T01:52:04.720Z,99.90
2022-08-28T01:54:37.778Z,99.90
2022-08-28T01:57:10.973Z,99.90
2022-08-28T01:59:42.997Z,99.90
2022-08-28T02:02:16.287Z,99.90
2022-08-28T02:04:48.501Z,99.90
2022-08-28T02:07:20.408Z,99.90
2022-08-28T02:09:53.602Z,99.90
2022-08-28T02:12:25.485Z,99.90
2022-08-28T02:14:57.295Z,99.90
2022-08-28T02:17:29.204Z,99.90
2022-08-28T02:20:01.068Z,99.90
2022-08-28T02:22:33.081Z,99.90
2022-08-28T02:25:08.110Z,99.90
2022-08-28T02:27:40.084Z,99.90
2022-08-28T02:30:14.706Z,99.90
2022-08-28T02:32:46.956Z,99.90
2022-08-28T02:35:20.738Z,99.90
2022-08-28T02:37:54.458Z,99.90
2022-08-28T02:40:29.240Z,99.90
2022-08-28T02:43:01.025Z,99.90
2022-08-28T02:45:33.420Z,99.90
2022-08-28T02:48:12.029Z,99.90
2022-08-28T02:50:48.723Z,99.90
2022-08-28T02:53:20.517Z,99.90
2022-08-28T02:55:53.786Z,99.90
2022-08-28T02:58:27.237Z,99.90
2022-08-28T03:00:59.361Z,99.90
2022-08-28T03:03:32.522Z,99.90
2022-08-28T03:06:05.060Z,99.90
2022-08-28T03:08:37.469Z,99.90
2022-08-28T03:11:11.946Z,99.90
2022-08-28T03:13:44.015Z,99.90
2022-08-28T03:16:16.439Z,99.90
2022-08-28T03:18:48.362Z,99.90
2022-08-28T03:21:20.254Z,99.90
2022-08-28T03:23:52.085Z,99.90
2022-08-28T03:26:25.249Z,99.90
2022-08-28T03:28:57.671Z,99.90
2022-08-28T03:31:33.806Z,99.90
2022-08-28T03:34:06.175Z,99.90
2022-08-28T03:36:37.991Z,99.90
2022-08-28T03:39:10.112Z,99.90
2022-08-28T03:41:43.198Z,99.90
2022-08-28T03:44:15.820Z,99.90
2022-08-28T03:46:47.619Z,99.90
2022-08-28T03:49:19.812Z,99.90
2022-08-28T03:51:52.700Z,99.90
2022-08-28T03:54:25.168Z,99.90
2022-08-28T03:56:58.461Z,99.90
2022-08-28T03:59:33.681Z,99.90
2022-08-28T04:02:05.549Z,99.90
2022-08-28T04:04:37.365Z,99.90
2022-08-28T04:07:09.141Z,99.90
2022-08-28T04:09:41.001Z,99.90
2022-08-28T04:12:15.182Z,99.90
2022-08-28T04:14:47.043Z,99.90
2022-08-28T04:17:19.110Z,99.90
2022-08-28T04:19:52.876Z,99.90
2022-08-28T04:22:24.766Z,99.90
2022-08-28T04:24:56.566Z,99.90
2022-08-28T04:27:29.718Z,99.90
2022-08-28T04:30:01.717Z,99.90
2022-08-28T04:32:34.597Z,99.90
2022-08-28T04:35:09.860Z,99.90
2022-08-28T04:37:43.670Z,99.90
2022-08-28T04:40:15.982Z,99.90
2022-08-28T04:42:51.429Z,99.90
2022-08-28T04:45:23.270Z,99.90
2022-08-28T04:47:55.049Z,99.90
2022-08-28T04:50:26.837Z,99.90
2022-08-28T04:52:58.750Z,99.90
2022-08-28T04:55:53.589Z,99.90
2022-08-28T04:58:24.100Z,99.90
2022-08-28T05:00:56.566Z,99.90
2022-08-28T05:03:28.638Z,99.90
2022-08-28T05:06:00.551Z,99.90
2022-08-28T05:08:32.441Z,99.90
2022-08-28T05:11:12.653Z,99.90
2022-08-28T05:13:46.059Z,99.90
2022-08-28T05:16:18.954Z,99.90
2022-08-28T05:18:50.850Z,99.90
2022-08-28T05:21:23.354Z,99.90
2022-08-28T05:23:57.702Z,99.90
2022-08-28T05:26:30.038Z,99.90
2022-08-28T05:29:04.758Z,99.90
2022-08-28T05:31:39.001Z,99.90
2022-08-28T05:34:10.944Z,99.90
2022-08-28T05:36:42.851Z,99.90
2022-08-28T05:39:14.944Z,99.90
2022-08-28T05:41:47.192Z,99.90
2022-08-28T05:44:20.996Z,99.90
2022-08-28T05:46:52.857Z,99.90
2022-08-28T05:49:24.815Z,99.90
2022-08-28T05:51:56.633Z,99.90
2022-08-28T05:54:29.201Z,99.90
2022-08-28T05:57:01.070Z,99.90
2022-08-28T05:59:36.834Z,99.90
2022-08-28T06:02:08.952Z,99.90
2022-08-28T06:04:40.864Z,99.90
2022-08-28T06:07:13.708Z,99.90
2022-08-28T06:09:45.797Z,99.90
2022-08-28T06:12:17.556Z,99.90
2022-08-28T06:14:51.253Z,99.90
2022-08-28T06:17:23.850Z,99.90
2022-08-28T06:19:55.823Z,99.90
2022-08-28T06:22:27.680Z,99.90
2022-08-28T06:24:59.475Z,99.90
2022-08-28T06:27:33.617Z,99.90
2022-08-28T06:30:08.894Z,99.90
2022-08-28T06:32:40.800Z,99.90
2022-08-28T06:35:12.610Z,99.90
2022-08-28T06:37:44.691Z,99.90
2022-08-28T06:40:16.695Z,99.90
2022-08-28T06:42:48.650Z,99.90
2022-08-28T06:45:21.829Z,99.90
2022-08-28T06:47:53.641Z,99.90
2022-08-28T06:50:26.734Z,99.90
2022-08-28T06:52:58.745Z,99.90
2022-08-28T06:55:30.522Z,99.90
2022-08-28T06:58:02.658Z,99.90
2022-08-28T07:00:37.184Z,99.90
2022-08-28T07:03:10.194Z,99.90
2022-08-28T07:05:42.046Z,99.90
2022-08-28T07:08:14.078Z,99.90
2022-08-28T07:10:46.048Z,99.90
2022-08-28T07:13:17.835Z,99.90
2022-08-28T07:15:51.237Z,99.90
2022-08-28T07:18:23.563Z,99.90
2022-08-28T07:20:56.482Z,99.90
2022-08-28T07:23:28.847Z,99.90
2022-08-28T07:26:03.391Z,99.90
2022-08-28T07:28:36.452Z,99.90
2022-08-28T07:31:11.328Z,99.90
2022-08-28T07:33:43.642Z,99.90
2022-08-28T07:36:29.890Z,99.90
2022-08-28T07:39:01.898Z,99.90
2022-08-28T07:41:35.573Z,99.90
2022-08-28T07:44:27.780Z,99.90
2022-08-28T07:47:04.057Z,99.90
2022-08-28T07:49:36.088Z,99.90
2022-08-28T07:52:08.812Z,99.90
2022-08-28T07:54:40.853Z,99.90
2022-08-28T07:57:12.678Z,99.90
2022-08-28T07:59:44.618Z,99.90
2022-08-28T08:02:18.916Z,99.90
2022-08-28T08:04:50.748Z,99.90
2022-08-28T08:07:22.595Z,99.90
2022-08-28T08:09:54.383Z,99.90
2022-08-28T08:12:26.392Z,99.90
2022-08-28T08:15:01.262Z,99.90
2022-08-28T08:17:34.497Z,99.90
2022-08-28T08:20:08.690Z,99.90
2022-08-28T08:22:40.581Z,99.90
2022-08-28T08:25:12.568Z,99.90
2022-08-28T08:27:44.377Z,99.90
2022-08-28T08:30:16.472Z,99.90
2022-08-28T08:32:50.884Z,99.90
2022-08-28T08:35:22.705Z,99.90
2022-08-28T08:37:54.517Z,99.90
2022-08-28T08:40:26.376Z,99.90
2022-08-28T08:42:58.248Z,99.90
2022-08-28T08:45:31.949Z,99.90
2022-08-28T08:48:05.403Z,99.90
2022-08-28T08:50:37.272Z,99.90
2022-08-28T08:53:20.767Z,99.90
2022-08-28T08:55:54.072Z,99.90
2022-08-28T08:58:29.874Z,99.90
2022-08-28T09:01:09.460Z,99.90
2022-08-28T09:03:55.248Z,99.60
2022-08-28T09:06:39.890Z,99.70
2022-08-28T09:09:17.411Z,99.30
2022-08-28T09:11:57.003Z,99.10
2022-08-28T09:14:36.975Z,99.10
2022-08-28T09:17:11.887Z,99.00
2022-08-28T09:19:45.388Z,98.70
2022-08-28T09:22:17.290Z,98.50
2022-08-28T09:24:50.414Z,98.30
2022-08-28T09:27:26.249Z,98.00
2022-08-28T09:30:07.998Z,97.80
2022-08-28T09:32:45.428Z,97.60
2022-08-28T09:35:29.399Z,97.60
2022-08-28T09:38:18.820Z,97.40
2022-08-28T09:41:24.860Z,97.20
2022-08-28T09:43:57.138Z,97.10
2022-08-28T09:46:31.554Z,96.50
2022-08-28T09:49:09.932Z,96.30
2022-08-28T09:51:43.218Z,96.40
2022-08-28T09:54:18.798Z,96.30
2022-08-28T09:56:50.727Z,96.50
2022-08-28T09:59:25.092Z,96.60
2022-08-28T10:02:27.559Z,96.60
2022-08-28T10:05:03.186Z,95.90
2022-08-28T10:07:46.334Z,95.70
2022-08-28T10:10:27.838Z,95.60
2022-08-28T10:13:07.441Z,95.60
2022-08-28T10:15:54.081Z,95.60
2022-08-28T10:18:36.282Z,95.50
2022-08-28T10:21:15.296Z,95.30
2022-08-28T10:24:06.596Z,95.00
2022-08-28T10:26:48.803Z,94.70
2022-08-28T10:29:33.319Z,94.60
2022-08-28T10:32:23.845Z,94.50
2022-08-28T10:35:05.960Z,94.00
2022-08-28T10:37:47.493Z,93.70
2022-08-28T10:40:25.239Z,93.50
2022-08-28T10:43:03.776Z,93.10
2022-08-28T10:45:38.075Z,92.80
2022-08-28T10:48:19.810Z,92.50
2022-08-28T10:50:56.122Z,92.20
2022-08-28T10:53:33.122Z,91.80
2022-08-28T10:56:13.063Z,91.50
2022-08-28T10:58:49.354Z,91.00
2022-08-28T11:01:28.991Z,90.50
2022-08-28T11:04:06.808Z,90.10
2022-08-28T11:06:43.321Z,89.50
2022-08-28T11:09:25.858Z,88.90
2022-08-28T11:12:02.521Z,87.60
2022-08-28T11:14:48.049Z,87.10
2022-08-28T11:17:39.784Z,86.80
2022-08-28T11:20:16.149Z,86.40
2022-08-28T11:22:53.107Z,85.80
2022-08-28T11:25:32.786Z,85.50
2022-08-28T11:28:40.490Z,84.60
2022-08-28T11:31:29.627Z,83.50
2022-08-28T11:34:02.846Z,82.80
2022-08-28T11:36:53.277Z,82.00
2022-08-28T11:39:25.349Z,82.90
2022-08-28T11:42:37.323Z,82.50
2022-08-28T11:45:18.879Z,82.40
2022-08-28T11:47:56.458Z,82.00
2022-08-28T11:50:31.389Z,81.30
2022-08-28T11:53:31.886Z,80.60
2022-08-28T11:56:31.126Z,78.30
2022-08-28T11:59:42.361Z,78.50
2022-08-28T12:02:44.157Z,77.80
2022-08-28T12:05:42.122Z,78.60
2022-08-28T12:09:09.020Z,78.50
2022-08-28T12:11:59.847Z,77.70
2022-08-28T12:15:02.272Z,76.60
2022-08-28T12:17:50.798Z,73.40
2022-08-28T12:20:33.252Z,71.40
2022-08-28T12:23:32.193Z,69.50
2022-08-28T12:26:07.318Z,67.70
2022-08-28T12:28:45.121Z,65.20
2022-08-28T12:31:58.994Z,63.50
2022-08-28T12:34:42.426Z,60.20
2022-08-28T12:37:39.449Z,60.10
2022-08-28T12:40:27.573Z,58.70
2022-08-28T12:43:02.411Z,57.90
2022-08-28T12:45:37.466Z,56.80
2022-08-28T12:48:16.834Z,56.20
2022-08-28T12:50:56.176Z,55.00
2022-08-28T12:53:37.773Z,54.20
2022-08-28T12:56:11.635Z,53.30
2022-08-28T12:58:44.501Z,52.50
2022-08-28T13:01:25.706Z,51.40
2022-08-28T13:03:59.974Z,50.80
2022-08-28T13:06:35.925Z,50.40
2022-08-28T13:09:15.508Z,49.90
2022-08-28T13:11:49.366Z,49.10
2022-08-28T13:14:36.204Z,48.80
2022-08-28T13:17:08.265Z,48.40
2022-08-28T13:19:40.355Z,48.10
2022-08-28T13:22:26.902Z,48.00
2022-08-28T13:25:00.878Z,47.70
2022-08-28T13:27:32.661Z,47.30
2022-08-28T13:30:08.062Z,47.20
2022-08-28T13:32:40.481Z,47.30
2022-08-28T13:35:30.172Z,47.10
2022-08-28T13:38:03.517Z,47.40
2022-08-28T13:41:00.820Z,47.60
2022-08-28T13:43:44.105Z,47.50
2022-08-28T13:46:16.015Z,48.10
2022-08-28T13:48:47.850Z,48.00
2022-08-28T13:51:21.351Z,48.20
2022-08-28T13:53:53.740Z,48.20
2022-08-28T13:56:27.224Z,48.10
2022-08-28T13:58:58.998Z,47.70
2022-08-28T14:01:50.115Z,47.50
2022-08-28T14:04:22.413Z,47.00
2022-08-28T14:06:54.247Z,46.50
2022-08-28T14:09:27.079Z,46.30
2022-08-28T14:12:00.347Z,45.80
2022-08-28T14:14:32.606Z,45.30
2022-08-28T14:17:04.790Z,45.10
2022-08-28T14:19:37.284Z,45.10
2022-08-28T14:22:09.136Z,45.30
2022-08-28T14:24:41.325Z,45.50
2022-08-28T14:27:14.461Z,45.80
2022-08-28T14:29:46.465Z,45.90
2022-08-28T14:32:18.456Z,46.00
2022-08-28T14:34:51.325Z,46.00
2022-08-28T14:37:23.154Z,46.00
2022-08-28T14:39:55.051Z,46.30
2022-08-28T14:42:28.448Z,46.40
2022-08-28T14:45:00.300Z,46.50
2022-08-28T14:47:32.101Z,46.40
2022-08-28T14:50:04.120Z,46.20
2022-08-28T14:52:35.928Z,46.00
2022-08-28T14:55:11.134Z,45.90
2022-08-28T14:57:44.710Z,46.00
2022-08-28T15:00:20.937Z,45.80
2022-08-28T15:02:53.324Z,45.60
2022-08-28T15:05:31.757Z,45.60
2022-08-28T15:08:07.264Z,45.40
2022-08-28T15:10:39.783Z,45.40
2022-08-28T15:13:13.216Z,45.50
2022-08-28T15:15:47.757Z,45.70
2022-08-28T15:18:19.535Z,45.70
2022-08-28T15:20:51.349Z,45.70
2022-08-28T15:23:23.616Z,45.70
2022-08-28T15:25:55.787Z,45.70
2022-08-28T15:28:28.897Z,45.90
2022-08-28T15:31:00.645Z,46.10
2022-08-28T15:33:32.509Z,46.30
2022-08-28T15:36:04.505Z,46.40
2022-08-28T15:38:56.634Z,46.50
2022-08-28T15:41:30.645Z,46.80
2022-08-28T15:44:04.611Z,47.20
2022-08-28T15:46:36.454Z,47.30
2022-08-28T15:49:09.407Z,47.50
2022-08-28T15:51:42.387Z,47.80
2022-08-28T15:54:14.475Z,48.50
2022-08-28T15:56:46.666Z,47.80
2022-08-28T15:59:23.766Z,48.00
2022-08-28T16:02:12.329Z,48.30
2022-08-28T16:04:44.357Z,48.90
2022-08-28T16:07:17.620Z,48.60
2022-08-28T16:09:49.750Z,48.80
2022-08-28T16:12:21.589Z,49.00
2022-08-28T16:14:54.829Z,49.30
2022-08-28T16:17:26.969Z,49.40
2022-08-28T16:19:59.159Z,49.60
2022-08-28T16:22:31.036Z,49.80
2022-08-28T16:25:04.310Z,50.10
2022-08-28T16:27:42.195Z,50.20
2022-08-28T16:33:11.699Z,50.70
2022-08-28T16:35:54.823Z,50.90
2022-08-28T16:38:28.693Z,50.90
2022-08-28T16:41:00.510Z,51.00
2022-08-28T16:43:32.398Z,51.20
2022-08-28T16:46:09.651Z,51.40
2022-08-28T16:48:41.453Z,51.50
2022-08-28T16:51:13.889Z,51.50
2022-08-28T16:53:45.975Z,51.50
2022-08-28T16:56:18.385Z,51.20
2022-08-28T16:58:50.866Z,51.20
2022-08-28T17:01:26.956Z,51.20
2022-08-28T17:03:59.181Z,51.30
2022-08-28T17:06:32.128Z,51.40
2022-08-28T17:09:03.848Z,51.40
2022-08-28T17:11:36.135Z,51.40
2022-08-28T17:14:09.092Z,51.50
2022-08-28T17:16:42.358Z,51.50
2022-08-28T17:19:15.664Z,51.50
2022-08-28T17:22:06.225Z,51.60
2022-08-28T17:24:39.907Z,51.70
2022-08-28T17:27:11.695Z,51.80
2022-08-28T17:29:43.945Z,51.90
2022-08-28T17:32:20.022Z,51.90
2022-08-28T17:34:51.885Z,52.10
2022-08-28T17:37:24.823Z,52.20
2022-08-28T17:39:56.650Z,52.30
2022-08-28T17:42:28.486Z,52.40
2022-08-28T17:45:00.310Z,52.40
2022-08-28T17:47:33.790Z,52.50
2022-08-28T17:50:06.556Z,52.70
2022-08-28T17:52:38.589Z,52.70
2022-08-28T17:55:10.601Z,52.80
2022-08-28T17:57:42.630Z,52.90
2022-08-28T18:00:16.467Z,53.00
2022-08-28T18:02:52.384Z,53.10
2022-08-28T18:05:24.370Z,53.40
2022-08-28T18:07:56.183Z,53.60
2022-08-28T18:10:33.411Z,53.80
2022-08-28T18:13:05.837Z,54.00
2022-08-28T18:15:37.690Z,54.20
2022-08-28T18:18:12.695Z,54.40
2022-08-28T18:20:44.584Z,54.70
2022-08-28T18:23:16.454Z,54.80
2022-08-28T18:25:50.964Z,56.30
2022-08-28T18:28:24.841Z,54.70
2022-08-28T18:30:56.688Z,55.40
2022-08-28T18:33:29.859Z,55.60
2022-08-28T18:36:01.999Z,55.90
2022-08-28T18:38:35.512Z,55.60
2022-08-28T18:41:08.899Z,55.90
2022-08-28T18:43:41.959Z,56.20
2022-08-28T18:46:14.404Z,56.50
2022-08-28T18:48:47.957Z,56.80
2022-08-28T18:51:21.325Z,57.20
2022-08-28T18:53:53.637Z,57.60
2022-08-28T18:59:52.847Z,58.30
2022-08-28T19:02:25.019Z,58.30
2022-08-28T19:04:58.336Z,58.60
2022-08-28T19:07:30.093Z,58.90
2022-08-28T19:10:02.000Z,58.60
2022-08-28T19:12:34.330Z,59.30
2022-08-28T19:15:08.470Z,59.40
2022-08-28T19:17:41.573Z,59.80
2022-08-28T19:20:17.022Z,60.20
2022-08-28T19:22:49.131Z,60.50
2022-08-28T19:25:28.450Z,60.80
2022-08-28T19:28:02.646Z,61.30
2022-08-28T19:30:35.115Z,61.50
2022-08-28T19:33:06.933Z,61.70
2022-08-28T19:35:40.128Z,62.00
2022-08-28T19:38:12.139Z,62.30
2022-08-28T19:40:45.448Z,62.60
2022-08-28T19:43:17.692Z,63.60
2022-08-28T19:48:47.167Z,64.60
2022-08-28T19:51:42.151Z,64.50
2022-08-28T19:54:15.844Z,64.50
2022-08-28T19:56:59.571Z,64.30
2022-08-28T19:59:59.331Z,64.10
2022-08-28T20:06:01.550Z,63.20
2022-08-28T20:08:38.729Z,63.00
2022-08-28T20:11:43.134Z,62.40
2022-08-28T20:14:43.311Z,62.00
2022-08-28T20:17:23.599Z,61.90
2022-08-28T20:20:19.315Z,61.70
2022-08-28T20:23:06.256Z,61.40
2022-08-28T20:28:54.468Z,61.20
2022-08-28T20:34:44.359Z,60.50
2022-08-28T20:37:45.836Z,60.10
2022-08-28T20:43:36.051Z,59.50
2022-08-28T20:49:43.328Z,59.20
2022-08-28T20:52:49.252Z,59.10
2022-08-28T20:56:11.082Z,58.80
2022-08-28T20:59:37.222Z,58.70
2022-08-28T21:02:22.769Z,58.70
2022-08-28T21:04:55.359Z,58.50
2022-08-28T21:07:27.912Z,58.40
2022-08-28T21:10:05.456Z,58.30
2022-08-28T21:12:39.944Z,58.30
2022-08-28T21:15:13.595Z,58.20
2022-08-28T21:17:45.542Z,58.10
2022-08-28T21:20:20.005Z,58.10
2022-08-28T21:22:52.597Z,58.00
2022-08-28T21:25:28.275Z,57.80
2022-08-28T21:28:00.094Z,57.90
2022-08-28T21:30:40.358Z,57.80
2022-08-28T21:33:12.263Z,57.90
2022-08-28T21:35:44.841Z,57.90
2022-08-28T21:38:16.607Z,57.90
2022-08-28T21:40:48.530Z,57.90
2022-08-28T21:43:20.336Z,58.10
2022-08-28T21:45:59.078Z,58.10
2022-08-28T21:48:37.827Z,58.00
2022-08-28T21:51:11.414Z,58.10
2022-08-28T21:53:44.048Z,58.30
2022-08-28T21:56:17.290Z,58.30
2022-08-28T21:58:50.019Z,58.50
2022-08-28T22:01:25.814Z,58.60
2022-08-28T22:03:57.757Z,58.60
2022-08-28T22:06:30.065Z,58.70
2022-08-28T22:09:03.403Z,58.80
2022-08-28T22:11:35.261Z,58.80
2022-08-28T22:14:07.105Z,58.60
2022-08-28T22:16:40.378Z,58.80
2022-08-28T22:19:12.121Z,58.80
2022-08-28T22:22:02.262Z,58.60
2022-08-28T22:24:36.570Z,59.30
2022-08-28T22:27:08.216Z,58.90
2022-08-28T22:29:40.175Z,58.70
2022-08-28T22:32:13.330Z,59.00
2022-08-28T22:34:46.639Z,58.90
2022-08-28T22:37:18.316Z,59.00
2022-08-28T22:39:50.084Z,58.70
2022-08-28T22:42:23.046Z,58.60
2022-08-28T22:44:55.044Z,58.80
2022-08-28T22:47:28.513Z,59.00
2022-08-28T22:50:00.505Z,59.50
2022-08-28T22:52:32.718Z,59.90
2022-08-28T22:55:07.687Z,60.90
2022-08-28T22:57:41.285Z,61.00
2022-08-28T23:00:16.401Z,61.50
2022-08-28T23:02:50.835Z,61.80
2022-08-28T23:07:55.802Z,62.30
2022-08-28T23:10:48.195Z,63.10
2022-08-28T23:13:20.202Z,63.60
2022-08-28T23:18:25.858Z,64.10
2022-08-28T23:21:01.230Z,65.00
2022-08-28T23:23:33.432Z,65.20
2022-08-28T23:26:05.390Z,65.60
2022-08-28T23:28:37.257Z,65.90
2022-08-28T23:31:09.848Z,66.10
2022-08-28T23:36:15.457Z,73.00
2022-08-28T23:38:49.481Z,73.70
2022-08-28T23:41:26.222Z,67.00
2022-08-28T23:43:58.317Z,67.20
2022-08-28T23:46:30.226Z,67.40
2022-08-28T23:49:06.898Z,67.50
2022-08-28T23:51:41.679Z,67.60
2022-08-28T23:54:13.510Z,68.50
2022-08-28T23:59:21.212Z,67.60
